Kingsville Naval Air Station
KNQI : rendu visible

Aérodrome :











RETROUVEZ-NOUS SUR...

 
LOGIN :

S'inscrire | Disclaimer

   EN    FR    IT 

 









Légende :    VFR   VFR Marginal   IFR   IFR Intensif   IFR Très Intensif
Visi : 
Plafond : 
>= 8 km
>= 3000ft
5 à 8 km
1000 à 3000 ft
1500m à 5 km
500 à 1000 ft
800 à 1500m
200 à 500 ft
< 800m
< 200 ft
Symboles :   Orages  Brouillard  Fortes neiges  Fortes précipitations  Vent > 20 kt






- Altitude de l'aérodrome : 50 ft


KNQI - Kingsville Naval Air Station

DERNIER METAR :
  • 031656Z 00000KT 10SM FEW042 FEW300 33/22 A3002 RMK AO2 SLP161 T03280222 $

METARs EXPIRÉS :
  • 031556Z 23004KT 10SM FEW020 FEW250 32/23 A3002 RMK AO2 SLP161 T03170233 $
  • 031456Z 00000KT 10SM SCT015 SCT300 29/24 A3002 RMK AO2 SLP161 T02940244 51010 $

TAF TAF KNQI
Valide du 03 à 15h jusqu'au 04 à 15h UTC


0315/0415 VRB05KT 9999 SCT020 SCT300 QNH2999INS
TEMPO 0316/0320 09009KT FEW035 FEW300
BECMG 0319/0321 13014KT 9999 FEW040 FEW300 QNH2989INS
FM040200 VRB05KT 9999 SKC QNH2995INS
TEMPO 0409/0414 4000 BR FEW005 T37/0320Z T23/0412Z FN20042
FIR KZHU / Amérique du Nord



MET'MAP, la Météo Aéronautique d'un coup d'oeil ! - Copyright ORBIFLY Décembre 2007 - Disclaimer

ORBIFLY MET'MAP TEAM :

Programmation & Développement : Alexandra Zaïnal
Sur une idée originale de : Baudouin d'Aumeries
Assistance à la programmation : Marc-Olivier Méhu
Soutien technique & logistique : Manuel Goepfert

Contact : metmap@orbifly.com




SOURCES & CREDITS :

   NOAA       Earth
Advisory